sensor_id;sensor_type;location;lat;lon;timestamp;P1;durP1;ratioP1;P2;durP2;ratioP2
20022;SDS011;10172;42.054;24.546;2023-02-28T00:01:16;12.07;;;4.03;;
20022;SDS011;10172;42.054;24.546;2023-02-28T00:03:41;9.80;;;3.85;;
20022;SDS011;10172;42.054;24.546;2023-02-28T00:06:07;10.00;;;2.72;;
20022;SDS011;10172;42.054;24.546;2023-02-28T00:08:34;8.48;;;2.45;;
20022;SDS011;10172;42.054;24.546;2023-02-28T00:11:04;15.55;;;3.30;;
20022;SDS011;10172;42.054;24.546;2023-02-28T00:13:32;9.88;;;3.40;;
20022;SDS011;10172;42.054;24.546;2023-02-28T00:16:00;14.07;;;2.70;;
20022;SDS011;10172;42.054;24.546;2023-02-28T00:18:26;7.82;;;2.53;;
20022;SDS011;10172;42.054;24.546;2023-02-28T00:20:52;4.65;;;2.22;;
20022;SDS011;10172;42.054;24.546;2023-02-28T00:23:18;11.88;;;2.42;;
20022;SDS011;10172;42.054;24.546;2023-02-28T00:25:43;13.07;;;2.85;;
20022;SDS011;10172;42.054;24.546;2023-02-28T00:28:09;7.63;;;3.38;;
20022;SDS011;10172;42.054;24.546;2023-02-28T00:30:35;8.55;;;3.05;;
20022;SDS011;10172;42.054;24.546;2023-02-28T00:33:00;5.88;;;2.33;;
20022;SDS011;10172;42.054;24.546;2023-02-28T00:35:26;10.38;;;2.35;;
20022;SDS011;10172;42.054;24.546;2023-02-28T00:37:51;10.65;;;2.15;;
20022;SDS011;10172;42.054;24.546;2023-02-28T00:40:17;17.50;;;3.47;;
20022;SDS011;10172;42.054;24.546;2023-02-28T00:42:42;5.13;;;2.60;;
20022;SDS011;10172;42.054;24.546;2023-02-28T00:45:08;6.47;;;2.42;;
20022;SDS011;10172;42.054;24.546;2023-02-28T00:47:33;7.70;;;1.90;;
20022;SDS011;10172;42.054;24.546;2023-02-28T00:49:59;9.98;;;2.63;;
20022;SDS011;10172;42.054;24.546;2023-02-28T00:52:25;13.02;;;3.08;;
20022;SDS011;10172;42.054;24.546;2023-02-28T00:54:51;11.35;;;2.72;;
20022;SDS011;10172;42.054;24.546;2023-02-28T00:57:16;7.70;;;2.63;;
20022;SDS011;10172;42.054;24.546;2023-02-28T00:59:42;9.35;;;2.70;;
20022;SDS011;10172;42.054;24.546;2023-02-28T01:02:07;3.58;;;2.05;;
20022;SDS011;10172;42.054;24.546;2023-02-28T01:04:33;8.32;;;2.17;;
20022;SDS011;10172;42.054;24.546;2023-02-28T01:06:59;9.68;;;2.25;;
20022;SDS011;10172;42.054;24.546;2023-02-28T01:09:24;12.50;;;2.55;;
20022;SDS011;10172;42.054;24.546;2023-02-28T01:11:49;3.97;;;1.92;;
20022;SDS011;10172;42.054;24.546;2023-02-28T01:14:15;8.20;;;2.08;;
20022;SDS011;10172;42.054;24.546;2023-02-28T01:16:42;9.32;;;2.42;;
20022;SDS011;10172;42.054;24.546;2023-02-28T01:19:08;6.45;;;2.28;;
20022;SDS011;10172;42.054;24.546;2023-02-28T01:21:34;9.60;;;2.53;;
20022;SDS011;10172;42.054;24.546;2023-02-28T01:24:00;7.07;;;2.42;;
20022;SDS011;10172;42.054;24.546;2023-02-28T01:26:26;8.95;;;2.20;;
20022;SDS011;10172;42.054;24.546;2023-02-28T01:28:52;8.82;;;2.40;;
20022;SDS011;10172;42.054;24.546;2023-02-28T01:31:19;13.18;;;2.10;;
20022;SDS011;10172;42.054;24.546;2023-02-28T01:33:45;5.75;;;2.13;;
20022;SDS011;10172;42.054;24.546;2023-02-28T01:36:12;5.95;;;2.55;;
20022;SDS011;10172;42.054;24.546;2023-02-28T01:38:43;4.80;;;2.22;;
20022;SDS011;10172;42.054;24.546;2023-02-28T01:41:10;7.95;;;2.10;;
20022;SDS011;10172;42.054;24.546;2023-02-28T01:46:10;7.55;;;2.42;;
20022;SDS011;10172;42.054;24.546;2023-02-28T01:48:37;13.35;;;2.90;;
20022;SDS011;10172;42.054;24.546;2023-02-28T01:51:10;12.07;;;2.45;;
20022;SDS011;10172;42.054;24.546;2023-02-28T01:53:51;5.05;;;2.22;;
20022;SDS011;10172;42.054;24.546;2023-02-28T01:56:20;5.80;;;2.20;;
20022;SDS011;10172;42.054;24.546;2023-02-28T01:58:51;2.92;;;1.85;;
20022;SDS011;10172;42.054;24.546;2023-02-28T02:01:18;6.95;;;2.25;;
20022;SDS011;10172;42.054;24.546;2023-02-28T02:03:59;6.45;;;2.42;;
20022;SDS011;10172;42.054;24.546;2023-02-28T02:06:29;7.03;;;2.38;;
20022;SDS011;10172;42.054;24.546;2023-02-28T02:08:59;5.88;;;2.17;;
20022;SDS011;10172;42.054;24.546;2023-02-28T02:11:24;3.80;;;1.90;;
20022;SDS011;10172;42.054;24.546;2023-02-28T02:19:21;7.10;;;2.20;;
20022;SDS011;10172;42.054;24.546;2023-02-28T02:25:22;5.35;;;2.00;;
20022;SDS011;10172;42.054;24.546;2023-02-28T02:36:28;6.65;;;1.92;;
20022;SDS011;10172;42.054;24.546;2023-02-28T02:39:02;10.00;;;2.20;;
20022;SDS011;10172;42.054;24.546;2023-02-28T02:44:26;4.68;;;1.25;;
20022;SDS011;10172;42.054;24.546;2023-02-28T02:46:54;5.30;;;1.60;;
20022;SDS011;10172;42.054;24.546;2023-02-28T02:49:26;4.93;;;1.88;;
20022;SDS011;10172;42.054;24.546;2023-02-28T02:51:55;8.38;;;2.38;;
20022;SDS011;10172;42.054;24.546;2023-02-28T02:54:27;10.30;;;2.58;;
20022;SDS011;10172;42.054;24.546;2023-02-28T02:56:57;4.50;;;1.92;;
20022;SDS011;10172;42.054;24.546;2023-02-28T02:59:28;5.07;;;1.70;;
20022;SDS011;10172;42.054;24.546;2023-02-28T03:01:56;8.00;;;2.03;;
20022;SDS011;10172;42.054;24.546;2023-02-28T03:04:25;17.67;;;5.07;;
20022;SDS011;10172;42.054;24.546;2023-02-28T03:06:55;10.43;;;2.35;;
20022;SDS011;10172;42.054;24.546;2023-02-28T03:09:24;7.97;;;2.00;;
20022;SDS011;10172;42.054;24.546;2023-02-28T03:11:52;7.15;;;2.35;;
20022;SDS011;10172;42.054;24.546;2023-02-28T03:33:03;4.75;;;2.10;;
20022;SDS011;10172;42.054;24.546;2023-02-28T03:35:34;6.07;;;1.85;;
20022;SDS011;10172;42.054;24.546;2023-02-28T03:38:15;9.73;;;2.40;;
20022;SDS011;10172;42.054;24.546;2023-02-28T03:40:51;6.65;;;1.70;;
20022;SDS011;10172;42.054;24.546;2023-02-28T03:43:26;6.70;;;1.80;;
20022;SDS011;10172;42.054;24.546;2023-02-28T03:45:57;6.72;;;1.90;;
20022;SDS011;10172;42.054;24.546;2023-02-28T03:48:42;6.22;;;2.55;;
20022;SDS011;10172;42.054;24.546;2023-02-28T03:51:13;15.68;;;7.70;;
20022;SDS011;10172;42.054;24.546;2023-02-28T03:53:43;9.80;;;1.75;;
20022;SDS011;10172;42.054;24.546;2023-02-28T04:01:23;8.43;;;5.68;;
20022;SDS011;10172;42.054;24.546;2023-02-28T04:03:55;3.55;;;2.17;;
20022;SDS011;10172;42.054;24.546;2023-02-28T04:06:21;8.73;;;2.42;;
20022;SDS011;10172;42.054;24.546;2023-02-28T04:08:48;6.38;;;2.42;;
20022;SDS011;10172;42.054;24.546;2023-02-28T04:13:39;10.27;;;2.40;;
20022;SDS011;10172;42.054;24.546;2023-02-28T04:16:08;5.93;;;1.88;;
20022;SDS011;10172;42.054;24.546;2023-02-28T04:18:37;5.15;;;1.90;;
20022;SDS011;10172;42.054;24.546;2023-02-28T04:21:04;6.70;;;2.15;;
20022;SDS011;10172;42.054;24.546;2023-02-28T04:23:30;9.15;;;2.53;;
20022;SDS011;10172;42.054;24.546;2023-02-28T04:25:56;5.68;;;2.15;;
20022;SDS011;10172;42.054;24.546;2023-02-28T04:28:22;8.18;;;2.78;;
20022;SDS011;10172;42.054;24.546;2023-02-28T04:30:47;19.23;;;9.13;;
20022;SDS011;10172;42.054;24.546;2023-02-28T04:33:20;8.00;;;4.25;;
20022;SDS011;10172;42.054;24.546;2023-02-28T04:35:45;15.38;;;5.03;;
20022;SDS011;10172;42.054;24.546;2023-02-28T04:38:11;13.02;;;2.50;;
20022;SDS011;10172;42.054;24.546;2023-02-28T04:40:36;4.47;;;1.90;;
20022;SDS011;10172;42.054;24.546;2023-02-28T04:43:02;10.55;;;2.22;;
20022;SDS011;10172;42.054;24.546;2023-02-28T04:45:28;8.90;;;2.78;;
20022;SDS011;10172;42.054;24.546;2023-02-28T04:47:57;7.45;;;1.85;;
20022;SDS011;10172;42.054;24.546;2023-02-28T04:50:23;7.65;;;2.60;;
20022;SDS011;10172;42.054;24.546;2023-02-28T04:52:49;6.80;;;2.72;;
20022;SDS011;10172;42.054;24.546;2023-02-28T04:55:14;6.53;;;2.22;;
20022;SDS011;10172;42.054;24.546;2023-02-28T04:57:40;7.30;;;2.30;;
20022;SDS011;10172;42.054;24.546;2023-02-28T05:00:07;11.50;;;3.88;;
20022;SDS011;10172;42.054;24.546;2023-02-28T05:02:36;11.77;;;2.92;;
20022;SDS011;10172;42.054;24.546;2023-02-28T05:05:03;8.52;;;2.45;;
20022;SDS011;10172;42.054;24.546;2023-02-28T05:07:29;8.23;;;2.53;;
20022;SDS011;10172;42.054;24.546;2023-02-28T05:09:54;7.55;;;2.05;;
20022;SDS011;10172;42.054;24.546;2023-02-28T05:12:20;6.80;;;2.95;;
20022;SDS011;10172;42.054;24.546;2023-02-28T05:14:45;12.77;;;2.80;;
20022;SDS011;10172;42.054;24.546;2023-02-28T05:17:11;7.75;;;2.58;;
20022;SDS011;10172;42.054;24.546;2023-02-28T05:19:36;10.00;;;2.63;;
20022;SDS011;10172;42.054;24.546;2023-02-28T05:22:02;14.18;;;6.57;;
20022;SDS011;10172;42.054;24.546;2023-02-28T05:24:27;24.25;;;16.65;;
20022;SDS011;10172;42.054;24.546;2023-02-28T05:26:53;17.58;;;8.75;;
20022;SDS011;10172;42.054;24.546;2023-02-28T05:29:19;10.50;;;4.88;;
20022;SDS011;10172;42.054;24.546;2023-02-28T05:31:45;21.08;;;4.78;;
20022;SDS011;10172;42.054;24.546;2023-02-28T05:34:12;9.02;;;3.28;;
20022;SDS011;10172;42.054;24.546;2023-02-28T05:36:37;7.20;;;3.08;;
20022;SDS011;10172;42.054;24.546;2023-02-28T05:39:05;10.18;;;3.63;;
20022;SDS011;10172;42.054;24.546;2023-02-28T05:41:31;9.20;;;4.38;;
20022;SDS011;10172;42.054;24.546;2023-02-28T05:43:57;12.23;;;4.85;;
20022;SDS011;10172;42.054;24.546;2023-02-28T05:46:23;11.73;;;4.07;;
20022;SDS011;10172;42.054;24.546;2023-02-28T05:48:48;7.53;;;2.53;;
20022;SDS011;10172;42.054;24.546;2023-02-28T05:51:14;6.32;;;2.40;;
20022;SDS011;10172;42.054;24.546;2023-02-28T05:53:40;5.07;;;1.92;;
20022;SDS011;10172;42.054;24.546;2023-02-28T05:56:05;6.85;;;2.28;;
20022;SDS011;10172;42.054;24.546;2023-02-28T05:58:31;4.95;;;2.03;;
20022;SDS011;10172;42.054;24.546;2023-02-28T06:01:00;14.82;;;6.35;;
20022;SDS011;10172;42.054;24.546;2023-02-28T06:03:44;14.63;;;5.68;;
20022;SDS011;10172;42.054;24.546;2023-02-28T06:06:09;12.98;;;6.45;;
20022;SDS011;10172;42.054;24.546;2023-02-28T06:08:34;18.95;;;6.32;;
20022;SDS011;10172;42.054;24.546;2023-02-28T06:11:02;12.10;;;3.60;;
20022;SDS011;10172;42.054;24.546;2023-02-28T06:13:28;10.05;;;4.28;;
20022;SDS011;10172;42.054;24.546;2023-02-28T06:15:54;11.18;;;4.78;;
20022;SDS011;10172;42.054;24.546;2023-02-28T06:18:19;9.68;;;3.63;;
20022;SDS011;10172;42.054;24.546;2023-02-28T06:20:51;15.20;;;5.63;;
20022;SDS011;10172;42.054;24.546;2023-02-28T06:23:19;10.48;;;4.57;;
20022;SDS011;10172;42.054;24.546;2023-02-28T06:25:45;16.20;;;4.90;;
20022;SDS011;10172;42.054;24.546;2023-02-28T06:28:11;15.20;;;4.63;;
20022;SDS011;10172;42.054;24.546;2023-02-28T06:30:37;14.85;;;4.80;;
20022;SDS011;10172;42.054;24.546;2023-02-28T06:33:03;12.40;;;5.13;;
20022;SDS011;10172;42.054;24.546;2023-02-28T06:35:29;7.63;;;4.45;;
20022;SDS011;10172;42.054;24.546;2023-02-28T06:37:54;10.98;;;5.28;;
20022;SDS011;10172;42.054;24.546;2023-02-28T06:40:20;14.77;;;5.15;;
20022;SDS011;10172;42.054;24.546;2023-02-28T06:42:45;13.55;;;5.15;;
20022;SDS011;10172;42.054;24.546;2023-02-28T06:45:11;13.65;;;4.50;;
20022;SDS011;10172;42.054;24.546;2023-02-28T06:47:37;12.43;;;4.53;;
20022;SDS011;10172;42.054;24.546;2023-02-28T06:50:04;9.30;;;4.60;;
20022;SDS011;10172;42.054;24.546;2023-02-28T06:52:31;13.45;;;5.13;;
20022;SDS011;10172;42.054;24.546;2023-02-28T06:54:57;11.15;;;5.65;;
20022;SDS011;10172;42.054;24.546;2023-02-28T06:57:28;10.48;;;4.28;;
20022;SDS011;10172;42.054;24.546;2023-02-28T07:00:00;11.02;;;4.93;;
20022;SDS011;10172;42.054;24.546;2023-02-28T07:02:29;12.23;;;5.30;;
20022;SDS011;10172;42.054;24.546;2023-02-28T07:04:54;13.80;;;5.63;;
20022;SDS011;10172;42.054;24.546;2023-02-28T07:07:20;16.50;;;6.15;;
20022;SDS011;10172;42.054;24.546;2023-02-28T07:09:46;11.88;;;6.20;;
20022;SDS011;10172;42.054;24.546;2023-02-28T07:12:11;18.80;;;6.78;;
20022;SDS011;10172;42.054;24.546;2023-02-28T07:14:37;20.20;;;6.80;;
20022;SDS011;10172;42.054;24.546;2023-02-28T07:17:03;16.92;;;6.07;;
20022;SDS011;10172;42.054;24.546;2023-02-28T07:19:28;11.60;;;5.45;;
20022;SDS011;10172;42.054;24.546;2023-02-28T07:21:54;15.60;;;5.97;;
20022;SDS011;10172;42.054;24.546;2023-02-28T07:24:20;9.05;;;5.45;;
20022;SDS011;10172;42.054;24.546;2023-02-28T07:26:45;11.35;;;5.43;;
20022;SDS011;10172;42.054;24.546;2023-02-28T07:29:11;11.82;;;5.82;;
20022;SDS011;10172;42.054;24.546;2023-02-28T07:31:36;13.43;;;5.82;;
20022;SDS011;10172;42.054;24.546;2023-02-28T07:34:02;13.40;;;7.78;;
20022;SDS011;10172;42.054;24.546;2023-02-28T07:36:28;10.73;;;5.80;;
20022;SDS011;10172;42.054;24.546;2023-02-28T07:38:53;11.30;;;6.20;;
20022;SDS011;10172;42.054;24.546;2023-02-28T07:41:19;15.32;;;5.03;;
20022;SDS011;10172;42.054;24.546;2023-02-28T07:43:46;14.60;;;5.35;;
20022;SDS011;10172;42.054;24.546;2023-02-28T07:46:13;19.80;;;7.55;;
20022;SDS011;10172;42.054;24.546;2023-02-28T07:48:40;14.07;;;6.85;;
20022;SDS011;10172;42.054;24.546;2023-02-28T07:51:06;16.73;;;6.05;;
20022;SDS011;10172;42.054;24.546;2023-02-28T07:53:31;10.45;;;5.97;;
20022;SDS011;10172;42.054;24.546;2023-02-28T07:55:57;19.58;;;6.22;;
20022;SDS011;10172;42.054;24.546;2023-02-28T07:58:25;10.20;;;5.63;;
20022;SDS011;10172;42.054;24.546;2023-02-28T08:00:51;14.05;;;6.32;;
20022;SDS011;10172;42.054;24.546;2023-02-28T08:03:17;10.93;;;5.57;;
20022;SDS011;10172;42.054;24.546;2023-02-28T08:05:44;11.65;;;5.78;;
20022;SDS011;10172;42.054;24.546;2023-02-28T08:08:09;14.50;;;5.30;;
20022;SDS011;10172;42.054;24.546;2023-02-28T08:10:35;14.80;;;5.70;;
20022;SDS011;10172;42.054;24.546;2023-02-28T08:13:00;10.32;;;5.05;;
20022;SDS011;10172;42.054;24.546;2023-02-28T08:15:26;13.77;;;5.65;;
20022;SDS011;10172;42.054;24.546;2023-02-28T08:17:52;10.20;;;4.65;;
20022;SDS011;10172;42.054;24.546;2023-02-28T08:20:18;9.13;;;4.80;;
20022;SDS011;10172;42.054;24.546;2023-02-28T08:22:44;17.17;;;7.22;;
20022;SDS011;10172;42.054;24.546;2023-02-28T08:25:09;11.77;;;6.60;;
20022;SDS011;10172;42.054;24.546;2023-02-28T08:27:36;9.75;;;5.30;;
20022;SDS011;10172;42.054;24.546;2023-02-28T08:30:02;17.20;;;6.18;;
20022;SDS011;10172;42.054;24.546;2023-02-28T08:32:28;9.45;;;5.60;;
20022;SDS011;10172;42.054;24.546;2023-02-28T08:34:53;11.90;;;5.32;;
20022;SDS011;10172;42.054;24.546;2023-02-28T08:37:19;12.05;;;5.50;;
20022;SDS011;10172;42.054;24.546;2023-02-28T08:39:46;11.27;;;5.65;;
20022;SDS011;10172;42.054;24.546;2023-02-28T08:42:11;9.77;;;5.53;;
20022;SDS011;10172;42.054;24.546;2023-02-28T08:44:37;15.00;;;6.32;;
20022;SDS011;10172;42.054;24.546;2023-02-28T08:47:03;18.10;;;6.68;;
20022;SDS011;10172;42.054;24.546;2023-02-28T08:49:28;13.13;;;7.30;;
20022;SDS011;10172;42.054;24.546;2023-02-28T08:51:54;11.88;;;6.10;;
20022;SDS011;10172;42.054;24.546;2023-02-28T08:54:22;15.23;;;7.03;;
20022;SDS011;10172;42.054;24.546;2023-02-28T08:56:48;15.35;;;6.95;;
20022;SDS011;10172;42.054;24.546;2023-02-28T08:59:13;13.25;;;7.47;;
20022;SDS011;10172;42.054;24.546;2023-02-28T09:01:39;13.75;;;7.45;;
20022;SDS011;10172;42.054;24.546;2023-02-28T09:04:06;13.50;;;7.25;;
20022;SDS011;10172;42.054;24.546;2023-02-28T09:06:33;16.75;;;7.60;;
20022;SDS011;10172;42.054;24.546;2023-02-28T09:08:59;9.45;;;5.65;;
20022;SDS011;10172;42.054;24.546;2023-02-28T09:11:26;17.23;;;6.90;;
20022;SDS011;10172;42.054;24.546;2023-02-28T09:13:52;18.52;;;10.38;;
20022;SDS011;10172;42.054;24.546;2023-02-28T09:16:18;13.80;;;7.50;;
20022;SDS011;10172;42.054;24.546;2023-02-28T09:18:44;11.50;;;6.07;;
20022;SDS011;10172;42.054;24.546;2023-02-28T09:21:11;20.33;;;9.00;;
20022;SDS011;10172;42.054;24.546;2023-02-28T09:23:39;14.70;;;7.75;;
20022;SDS011;10172;42.054;24.546;2023-02-28T09:26:06;13.27;;;7.55;;
20022;SDS011;10172;42.054;24.546;2023-02-28T09:28:32;20.33;;;9.23;;
20022;SDS011;10172;42.054;24.546;2023-02-28T09:30:58;20.63;;;9.48;;
20022;SDS011;10172;42.054;24.546;2023-02-28T09:33:24;16.17;;;9.68;;
20022;SDS011;10172;42.054;24.546;2023-02-28T09:35:51;15.68;;;9.05;;
20022;SDS011;10172;42.054;24.546;2023-02-28T09:38:23;18.50;;;9.35;;
20022;SDS011;10172;42.054;24.546;2023-02-28T09:40:53;16.38;;;10.00;;
20022;SDS011;10172;42.054;24.546;2023-02-28T09:43:25;16.95;;;10.10;;
20022;SDS011;10172;42.054;24.546;2023-02-28T09:45:55;17.38;;;9.18;;
20022;SDS011;10172;42.054;24.546;2023-02-28T09:48:33;16.00;;;8.75;;
20022;SDS011;10172;42.054;24.546;2023-02-28T09:51:03;17.00;;;9.13;;
20022;SDS011;10172;42.054;24.546;2023-02-28T09:53:35;24.13;;;8.75;;
20022;SDS011;10172;42.054;24.546;2023-02-28T09:56:05;18.98;;;9.13;;
20022;SDS011;10172;42.054;24.546;2023-02-28T10:03:59;16.70;;;8.50;;
20022;SDS011;10172;42.054;24.546;2023-02-28T10:06:39;16.10;;;8.63;;
20022;SDS011;10172;42.054;24.546;2023-02-28T10:09:15;18.52;;;8.98;;
20022;SDS011;10172;42.054;24.546;2023-02-28T10:11:52;20.13;;;9.93;;
20022;SDS011;10172;42.054;24.546;2023-02-28T10:14:19;17.23;;;9.85;;
20022;SDS011;10172;42.054;24.546;2023-02-28T10:22:16;25.67;;;17.13;;
20022;SDS011;10172;42.054;24.546;2023-02-28T10:24:49;25.77;;;15.82;;
20022;SDS011;10172;42.054;24.546;2023-02-28T10:27:23;25.15;;;12.82;;
20022;SDS011;10172;42.054;24.546;2023-02-28T10:29:54;25.00;;;14.05;;
20022;SDS011;10172;42.054;24.546;2023-02-28T10:32:30;22.85;;;13.82;;
20022;SDS011;10172;42.054;24.546;2023-02-28T10:35:19;25.70;;;13.82;;
20022;SDS011;10172;42.054;24.546;2023-02-28T10:37:54;28.65;;;15.57;;
20022;SDS011;10172;42.054;24.546;2023-02-28T10:42:57;18.30;;;11.73;;
20022;SDS011;10172;42.054;24.546;2023-02-28T10:45:25;20.15;;;11.60;;
20022;SDS011;10172;42.054;24.546;2023-02-28T10:47:54;23.13;;;12.48;;
20022;SDS011;10172;42.054;24.546;2023-02-28T10:56:02;18.40;;;10.65;;
20022;SDS011;10172;42.054;24.546;2023-02-28T10:58:42;18.52;;;11.52;;
20022;SDS011;10172;42.054;24.546;2023-02-28T11:01:13;24.73;;;12.98;;
20022;SDS011;10172;42.054;24.546;2023-02-28T11:03:40;22.55;;;12.57;;
20022;SDS011;10172;42.054;24.546;2023-02-28T11:06:07;21.40;;;12.82;;
20022;SDS011;10172;42.054;24.546;2023-02-28T11:08:44;21.63;;;12.15;;
20022;SDS011;10172;42.054;24.546;2023-02-28T11:11:14;22.92;;;11.88;;
20022;SDS011;10172;42.054;24.546;2023-02-28T11:13:42;22.98;;;13.25;;
20022;SDS011;10172;42.054;24.546;2023-02-28T11:16:10;29.13;;;13.18;;
20022;SDS011;10172;42.054;24.546;2023-02-28T11:21:06;28.20;;;11.68;;
20022;SDS011;10172;42.054;24.546;2023-02-28T11:23:33;21.58;;;12.68;;
20022;SDS011;10172;42.054;24.546;2023-02-28T11:26:02;19.27;;;11.38;;
20022;SDS011;10172;42.054;24.546;2023-02-28T11:28:37;22.20;;;13.00;;
20022;SDS011;10172;42.054;24.546;2023-02-28T11:33:48;26.67;;;13.95;;
20022;SDS011;10172;42.054;24.546;2023-02-28T11:38:49;20.38;;;12.30;;
20022;SDS011;10172;42.054;24.546;2023-02-28T11:41:19;25.05;;;12.57;;
20022;SDS011;10172;42.054;24.546;2023-02-28T11:46:52;23.35;;;11.70;;
20022;SDS011;10172;42.054;24.546;2023-02-28T11:49:37;23.92;;;11.85;;
20022;SDS011;10172;42.054;24.546;2023-02-28T11:57:48;21.55;;;11.15;;
20022;SDS011;10172;42.054;24.546;2023-02-28T12:06:21;20.75;;;12.60;;
20022;SDS011;10172;42.054;24.546;2023-02-28T12:11:38;25.13;;;14.75;;
20022;SDS011;10172;42.054;24.546;2023-02-28T12:22:51;32.05;;;15.60;;
20022;SDS011;10172;42.054;24.546;2023-02-28T12:28:36;32.08;;;16.05;;
20022;SDS011;10172;42.054;24.546;2023-02-28T12:31:21;35.08;;;16.35;;
20022;SDS011;10172;42.054;24.546;2023-02-28T12:36:39;24.15;;;14.50;;
20022;SDS011;10172;42.054;24.546;2023-02-28T12:39:15;27.23;;;16.05;;
20022;SDS011;10172;42.054;24.546;2023-02-28T12:41:47;25.17;;;14.45;;
20022;SDS011;10172;42.054;24.546;2023-02-28T12:44:23;24.42;;;14.63;;
20022;SDS011;10172;42.054;24.546;2023-02-28T12:46:57;29.17;;;16.10;;
20022;SDS011;10172;42.054;24.546;2023-02-28T12:49:28;27.67;;;14.80;;
20022;SDS011;10172;42.054;24.546;2023-02-28T12:51:56;25.60;;;14.73;;
20022;SDS011;10172;42.054;24.546;2023-02-28T12:57:28;24.90;;;14.75;;
20022;SDS011;10172;42.054;24.546;2023-02-28T13:00:08;30.92;;;15.70;;
20022;SDS011;10172;42.054;24.546;2023-02-28T13:08:11;26.45;;;16.30;;
20022;SDS011;10172;42.054;24.546;2023-02-28T13:10:55;30.83;;;15.63;;
20022;SDS011;10172;42.054;24.546;2023-02-28T13:13:25;31.38;;;16.55;;
20022;SDS011;10172;42.054;24.546;2023-02-28T13:21:04;29.42;;;16.55;;
20022;SDS011;10172;42.054;24.546;2023-02-28T13:26:23;24.45;;;15.65;;
20022;SDS011;10172;42.054;24.546;2023-02-28T13:34:31;34.45;;;15.40;;
20022;SDS011;10172;42.054;24.546;2023-02-28T13:39:56;25.42;;;15.63;;
20022;SDS011;10172;42.054;24.546;2023-02-28T13:47:32;37.17;;;17.08;;
20022;SDS011;10172;42.054;24.546;2023-02-28T14:06:48;35.60;;;19.13;;
20022;SDS011;10172;42.054;24.546;2023-02-28T14:09:19;29.42;;;18.27;;
20022;SDS011;10172;42.054;24.546;2023-02-28T14:11:50;31.65;;;17.98;;
20022;SDS011;10172;42.054;24.546;2023-02-28T14:16:59;33.58;;;19.05;;
20022;SDS011;10172;42.054;24.546;2023-02-28T14:19:29;33.45;;;19.45;;
20022;SDS011;10172;42.054;24.546;2023-02-28T14:22:06;45.10;;;21.88;;
20022;SDS011;10172;42.054;24.546;2023-02-28T14:38:44;35.50;;;20.48;;
20022;SDS011;10172;42.054;24.546;2023-02-28T14:43:53;30.98;;;17.05;;
20022;SDS011;10172;42.054;24.546;2023-02-28T14:46:21;35.90;;;17.02;;
20022;SDS011;10172;42.054;24.546;2023-02-28T14:48:49;26.00;;;15.63;;
20022;SDS011;10172;42.054;24.546;2023-02-28T14:51:20;31.45;;;17.65;;
20022;SDS011;10172;42.054;24.546;2023-02-28T14:53:56;31.08;;;17.20;;
20022;SDS011;10172;42.054;24.546;2023-02-28T14:56:41;27.25;;;14.85;;
20022;SDS011;10172;42.054;24.546;2023-02-28T14:59:24;29.45;;;17.52;;
20022;SDS011;10172;42.054;24.546;2023-02-28T15:01:52;30.58;;;16.10;;
20022;SDS011;10172;42.054;24.546;2023-02-28T15:04:32;29.02;;;16.33;;
20022;SDS011;10172;42.054;24.546;2023-02-28T15:07:11;26.33;;;15.68;;
20022;SDS011;10172;42.054;24.546;2023-02-28T15:09:39;25.98;;;16.30;;
20022;SDS011;10172;42.054;24.546;2023-02-28T15:12:04;27.73;;;15.98;;
20022;SDS011;10172;42.054;24.546;2023-02-28T15:14:30;32.47;;;17.42;;
20022;SDS011;10172;42.054;24.546;2023-02-28T15:17:01;28.55;;;17.20;;
20022;SDS011;10172;42.054;24.546;2023-02-28T15:19:30;25.63;;;14.43;;
20022;SDS011;10172;42.054;24.546;2023-02-28T15:22:00;21.90;;;13.48;;
20022;SDS011;10172;42.054;24.546;2023-02-28T15:27:12;18.77;;;13.07;;
20022;SDS011;10172;42.054;24.546;2023-02-28T15:29:47;17.83;;;12.30;;
20022;SDS011;10172;42.054;24.546;2023-02-28T15:32:24;20.77;;;12.00;;
20022;SDS011;10172;42.054;24.546;2023-02-28T15:40:37;34.50;;;19.42;;
20022;SDS011;10172;42.054;24.546;2023-02-28T15:43:13;38.03;;;21.52;;
20022;SDS011;10172;42.054;24.546;2023-02-28T15:45:41;36.72;;;21.58;;
20022;SDS011;10172;42.054;24.546;2023-02-28T15:48:14;40.20;;;22.23;;
20022;SDS011;10172;42.054;24.546;2023-02-28T15:53:37;36.13;;;20.20;;
20022;SDS011;10172;42.054;24.546;2023-02-28T15:56:52;36.05;;;18.52;;
20022;SDS011;10172;42.054;24.546;2023-02-28T15:59:05;27.90;;;16.27;;
20022;SDS011;10172;42.054;24.546;2023-02-28T16:01:35;28.90;;;16.75;;
20022;SDS011;10172;42.054;24.546;2023-02-28T16:04:03;29.83;;;17.15;;
20022;SDS011;10172;42.054;24.546;2023-02-28T16:09:00;37.15;;;22.17;;
20022;SDS011;10172;42.054;24.546;2023-02-28T16:11:27;33.67;;;20.70;;
20022;SDS011;10172;42.054;24.546;2023-02-28T16:13:53;37.60;;;21.17;;
20022;SDS011;10172;42.054;24.546;2023-02-28T16:16:20;49.88;;;27.02;;
20022;SDS011;10172;42.054;24.546;2023-02-28T16:18:47;38.50;;;22.98;;
20022;SDS011;10172;42.054;24.546;2023-02-28T16:21:13;27.85;;;15.88;;
20022;SDS011;10172;42.054;24.546;2023-02-28T16:23:38;30.50;;;18.15;;
20022;SDS011;10172;42.054;24.546;2023-02-28T16:26:04;30.92;;;19.15;;
20022;SDS011;10172;42.054;24.546;2023-02-28T16:28:32;33.80;;;23.70;;
20022;SDS011;10172;42.054;24.546;2023-02-28T16:31:01;32.00;;;18.02;;
20022;SDS011;10172;42.054;24.546;2023-02-28T16:33:28;36.63;;;22.40;;
20022;SDS011;10172;42.054;24.546;2023-02-28T16:35:54;29.10;;;17.45;;
20022;SDS011;10172;42.054;24.546;2023-02-28T16:38:20;45.90;;;22.92;;
20022;SDS011;10172;42.054;24.546;2023-02-28T16:40:46;39.10;;;22.85;;
20022;SDS011;10172;42.054;24.546;2023-02-28T16:43:16;36.92;;;21.15;;
20022;SDS011;10172;42.054;24.546;2023-02-28T16:45:46;30.70;;;17.40;;
20022;SDS011;10172;42.054;24.546;2023-02-28T16:48:12;26.40;;;16.67;;
20022;SDS011;10172;42.054;24.546;2023-02-28T16:50:41;29.38;;;16.85;;
20022;SDS011;10172;42.054;24.546;2023-02-28T16:53:09;29.10;;;15.85;;
20022;SDS011;10172;42.054;24.546;2023-02-28T16:55:35;25.65;;;19.70;;
20022;SDS011;10172;42.054;24.546;2023-02-28T16:58:01;39.78;;;27.15;;
20022;SDS011;10172;42.054;24.546;2023-02-28T17:00:29;11.55;;;7.20;;
20022;SDS011;10172;42.054;24.546;2023-02-28T17:02:56;24.42;;;15.90;;
20022;SDS011;10172;42.054;24.546;2023-02-28T17:05:24;42.78;;;26.58;;
20022;SDS011;10172;42.054;24.546;2023-02-28T17:07:50;29.35;;;16.67;;
20022;SDS011;10172;42.054;24.546;2023-02-28T17:10:23;32.30;;;18.52;;
20022;SDS011;10172;42.054;24.546;2023-02-28T17:12:50;26.75;;;17.95;;
20022;SDS011;10172;42.054;24.546;2023-02-28T17:15:17;31.42;;;19.65;;
20022;SDS011;10172;42.054;24.546;2023-02-28T17:17:45;26.70;;;16.45;;
20022;SDS011;10172;42.054;24.546;2023-02-28T17:20:18;25.90;;;15.13;;
20022;SDS011;10172;42.054;24.546;2023-02-28T17:22:49;21.00;;;12.45;;
20022;SDS011;10172;42.054;24.546;2023-02-28T17:25:15;17.80;;;11.52;;
20022;SDS011;10172;42.054;24.546;2023-02-28T17:27:41;17.63;;;11.15;;
20022;SDS011;10172;42.054;24.546;2023-02-28T17:32:41;24.23;;;15.02;;
20022;SDS011;10172;42.054;24.546;2023-02-28T17:35:07;21.58;;;13.13;;
20022;SDS011;10172;42.054;24.546;2023-02-28T17:37:33;21.55;;;13.13;;
20022;SDS011;10172;42.054;24.546;2023-02-28T17:39:58;24.23;;;17.55;;